Time;durP1;ratioP1;P1;durP2;ratioP2;P2;SDS_P1;SDS_P2;PMS_P1;PMS_P2;Temp;Humidity;BMP_temperature;BMP_pressure;BME280_temperature;BME280_humidity;BME280_pressure;Samples;Min_cycle;Max_cycle;Signal;HPM_P1;HPM_P2
2022/01/17 00:00:10;;;;;;;;;;;1.30;99.90;;;;;;5049745;28;19913;-80
2022/01/17 00:02:36;;;;;;;;;;;1.30;99.90;;;;;;5047225;28;19919;-80
2022/01/17 00:05:03;;;;;;;;;;;1.30;99.90;;;;;;5051216;28;19909;-80
2022/01/17 00:07:30;;;;;;;;;;;1.30;99.90;;;;;;5051020;28;19956;-80
2022/01/17 00:09:56;;;;;;;;;;;1.30;99.90;;;;;;5033410;28;19920;-80
2022/01/17 00:12:22;;;;;;;;;;;1.30;99.90;;;;;;5041973;28;19917;-79
2022/01/17 00:14:48;;;;;;;;;;;1.30;99.90;;;;;;5046967;28;19960;-80
2022/01/17 00:19:44;;;;;;;;;;;1.30;99.90;;;;;;5029451;28;19979;-80
2022/01/17 00:22:10;;;;;;;;;;;1.30;99.90;;;;;;5017540;28;20307;-81
2022/01/17 00:24:36;;;;;;;;;;;1.30;99.90;;;;;;5033527;28;20368;-80
2022/01/17 00:27:02;;;;;;;;;;;1.30;99.90;;;;;;5064010;28;19966;-81
2022/01/17 00:29:28;;;;;;;;;;;1.30;99.90;;;;;;5036114;28;19920;-80
2022/01/17 00:31:54;;;;;;;;;;;1.30;99.90;;;;;;5053157;28;19913;-80
2022/01/17 00:34:19;;;;;;;;;;;1.30;99.90;;;;;;5049965;28;19998;-80
2022/01/17 00:36:45;;;;;;;;;;;1.30;99.90;;;;;;5050513;28;20379;-80
2022/01/17 00:39:11;;;;;;;;;;;1.30;99.90;;;;;;5045503;28;19917;-80
2022/01/17 00:41:36;;;;;;;;;;;1.30;99.90;;;;;;5030127;28;19959;-81
2022/01/17 00:44:04;;;;;;;;;;;1.30;99.90;;;;;;5041591;28;19962;-80
2022/01/17 00:46:30;;;;;;;;;;;1.30;99.90;;;;;;5041307;28;19913;-80
2022/01/17 00:48:56;;;;;;;;;;;1.30;99.90;;;;;;5029191;28;19924;-80
2022/01/17 00:51:21;;;;;;;;;;;1.40;99.90;;;;;;5028481;28;19917;-81
2022/01/17 00:53:48;;;;;;;;;;;1.40;99.90;;;;;;5046611;28;19917;-80
2022/01/17 00:56:14;;;;;;;;;;;1.40;99.90;;;;;;5048804;28;19952;-80
2022/01/17 00:58:40;;;;;;;;;;;1.40;99.90;;;;;;5051098;28;19966;-81
2022/01/17 01:01:05;;;;;;;;;;;1.40;99.90;;;;;;5053651;28;20011;-80
2022/01/17 01:03:31;;;;;;;;;;;1.40;99.90;;;;;;5053864;28;19917;-80
2022/01/17 01:05:57;;;;;;;;;;;1.40;99.90;;;;;;5036330;28;19916;-80
2022/01/17 01:08:22;;;;;;;;;;;1.40;99.90;;;;;;5001468;28;19928;-80
2022/01/17 01:10:48;;;;;;;;;;;1.40;99.90;;;;;;5034601;28;19913;-81
2022/01/17 01:13:14;;;;;;;;;;;1.40;99.90;;;;;;5037652;28;20294;-80
2022/01/17 01:18:29;;;;;;;;;;;1.40;99.90;;;;;;5053668;28;20291;-80
2022/01/17 01:29:12;;;;;;;;;;;1.40;99.90;;;;;;5047105;28;19924;-80
2022/01/17 01:31:49;;;;;;;;;;;1.50;99.90;;;;;;5053043;28;19917;-80
2022/01/17 01:34:16;;;;;;;;;;;1.40;99.90;;;;;;5034734;28;19932;-80
2022/01/17 01:36:42;;;;;;;;;;;1.40;99.90;;;;;;5048979;28;19913;-80
2022/01/17 01:39:08;;;;;;;;;;;1.40;99.90;;;;;;5059101;28;19923;-80
2022/01/17 01:41:42;;;;;;;;;;;1.50;99.90;;;;;;5073026;28;19913;-80
2022/01/17 01:44:14;;;;;;;;;;;1.50;99.90;;;;;;5072931;28;19912;-80
2022/01/17 01:46:40;;;;;;;;;;;1.50;99.90;;;;;;5064479;28;20268;-80
2022/01/17 01:49:06;;;;;;;;;;;1.40;99.90;;;;;;5015786;28;19921;-80
2022/01/17 01:51:32;;;;;;;;;;;1.50;99.90;;;;;;5032967;28;19913;-80
2022/01/17 01:53:57;;;;;;;;;;;1.50;99.90;;;;;;5045216;28;19923;-80
2022/01/17 01:56:23;;;;;;;;;;;1.40;99.90;;;;;;5016402;28;19935;-80
2022/01/17 01:58:49;;;;;;;;;;;1.40;99.90;;;;;;5030234;28;19924;-80
2022/01/17 02:01:14;;;;;;;;;;;1.50;99.90;;;;;;5029467;28;19921;-80
2022/01/17 02:03:40;;;;;;;;;;;1.40;99.90;;;;;;5004479;28;19932;-80
2022/01/17 02:06:05;;;;;;;;;;;1.50;99.90;;;;;;5044997;28;19913;-80
2022/01/17 02:08:31;;;;;;;;;;;1.50;99.90;;;;;;5033428;28;19960;-80
2022/01/17 02:10:57;;;;;;;;;;;1.50;99.90;;;;;;5049080;28;20307;-80
2022/01/17 02:13:25;;;;;;;;;;;1.40;99.90;;;;;;5035613;28;19913;-80
2022/01/17 02:15:52;;;;;;;;;;;1.40;99.90;;;;;;5035507;28;19972;-80
2022/01/17 02:18:22;;;;;;;;;;;1.40;99.90;;;;;;5035445;28;19962;-80
2022/01/17 02:21:09;;;;;;;;;;;1.50;99.90;;;;;;5035269;28;19921;-80
2022/01/17 02:23:33;;;;;;;;;;;1.40;99.90;;;;;;5039772;28;20445;-79
2022/01/17 02:25:59;;;;;;;;;;;1.40;99.90;;;;;;5044970;28;19913;-81
2022/01/17 02:28:24;;;;;;;;;;;1.40;99.90;;;;;;5072022;28;19924;-80
2022/01/17 02:30:50;;;;;;;;;;;1.40;99.90;;;;;;5062179;28;19916;-80
2022/01/17 02:33:15;;;;;;;;;;;1.40;99.90;;;;;;5052353;28;20287;-79
2022/01/17 02:35:45;;;;;;;;;;;1.50;99.90;;;;;;5033734;28;19917;-80
2022/01/17 02:38:11;;;;;;;;;;;1.40;99.90;;;;;;5048062;28;19917;-80
2022/01/17 02:40:36;;;;;;;;;;;1.40;99.90;;;;;;5049064;28;20383;-80
2022/01/17 02:43:04;;;;;;;;;;;1.40;99.90;;;;;;5033244;28;19913;-80
2022/01/17 02:45:32;;;;;;;;;;;1.50;99.90;;;;;;5031362;28;19967;-80
2022/01/17 02:47:59;;;;;;;;;;;1.50;99.90;;;;;;5038568;28;19917;-80
2022/01/17 02:50:25;;;;;;;;;;;1.50;99.90;;;;;;5051287;28;20274;-81
2022/01/17 02:52:51;;;;;;;;;;;1.50;99.90;;;;;;5051996;28;20007;-80
2022/01/17 02:55:16;;;;;;;;;;;1.50;99.90;;;;;;5035252;28;19939;-80
2022/01/17 02:57:42;;;;;;;;;;;1.40;99.90;;;;;;5052421;28;19917;-80
2022/01/17 03:00:11;;;;;;;;;;;1.40;99.90;;;;;;5051215;28;19917;-81
2022/01/17 03:02:36;;;;;;;;;;;1.40;99.90;;;;;;5035219;28;19913;-80
2022/01/17 03:05:07;;;;;;;;;;;1.50;99.90;;;;;;5052782;28;19920;-80
2022/01/17 03:07:32;;;;;;;;;;;1.40;99.90;;;;;;5034173;28;19928;-80
2022/01/17 03:10:02;;;;;;;;;;;1.40;99.90;;;;;;5034243;28;19943;-80
2022/01/17 03:12:31;;;;;;;;;;;1.40;99.90;;;;;;5035206;28;20394;-80
2022/01/17 03:14:57;;;;;;;;;;;1.50;99.90;;;;;;5037135;28;20319;-80
2022/01/17 03:17:23;;;;;;;;;;;1.50;99.90;;;;;;5018355;28;19920;-80
2022/01/17 03:19:49;;;;;;;;;;;1.50;99.90;;;;;;5030530;28;19909;-80
2022/01/17 03:22:14;;;;;;;;;;;1.50;99.90;;;;;;5030693;28;20532;-80
2022/01/17 03:24:40;;;;;;;;;;;1.50;99.90;;;;;;5031320;28;19919;-80
2022/01/17 03:27:05;;;;;;;;;;;1.50;99.90;;;;;;5053507;28;19913;-80
2022/01/17 03:29:31;;;;;;;;;;;1.50;99.90;;;;;;5048123;28;19956;-80
2022/01/17 03:31:57;;;;;;;;;;;1.50;99.90;;;;;;5034261;28;19921;-80
2022/01/17 03:34:23;;;;;;;;;;;1.50;99.90;;;;;;5053599;28;20329;-80
2022/01/17 03:36:48;;;;;;;;;;;1.50;99.90;;;;;;5053580;28;19916;-80
2022/01/17 03:39:14;;;;;;;;;;;1.50;99.90;;;;;;5053469;28;20015;-79
2022/01/17 03:41:40;;;;;;;;;;;1.50;99.90;;;;;;5070741;28;19912;-80
2022/01/17 03:44:06;;;;;;;;;;;1.60;99.90;;;;;;5070468;28;19920;-81
2022/01/17 03:46:32;;;;;;;;;;;1.60;99.90;;;;;;5047168;28;19952;-80
2022/01/17 03:48:58;;;;;;;;;;;1.60;99.90;;;;;;5049885;28;19959;-80
2022/01/17 03:51:24;;;;;;;;;;;1.60;99.90;;;;;;5034084;28;19920;-79
2022/01/17 03:53:49;;;;;;;;;;;1.60;99.90;;;;;;5027873;28;19965;-80
2022/01/17 03:56:16;;;;;;;;;;;1.60;99.90;;;;;;5030107;28;19923;-81
2022/01/17 03:58:42;;;;;;;;;;;1.60;99.90;;;;;;5039804;28;19959;-80
2022/01/17 04:01:09;;;;;;;;;;;1.60;99.90;;;;;;5040104;28;19917;-80
2022/01/17 04:03:34;;;;;;;;;;;1.60;99.90;;;;;;5050253;28;19917;-80
2022/01/17 04:06:00;;;;;;;;;;;1.60;99.90;;;;;;5051174;28;19920;-80
2022/01/17 04:08:26;;;;;;;;;;;1.60;99.90;;;;;;5035906;28;19921;-80
2022/01/17 04:10:51;;;;;;;;;;;1.60;99.90;;;;;;5038086;28;19913;-80
2022/01/17 04:13:18;;;;;;;;;;;1.60;99.90;;;;;;5030119;28;19967;-80
2022/01/17 04:15:43;;;;;;;;;;;1.60;99.90;;;;;;5048270;28;19913;-80
2022/01/17 04:18:09;;;;;;;;;;;1.60;99.90;;;;;;5049957;28;19913;-80
2022/01/17 04:20:36;;;;;;;;;;;1.60;99.90;;;;;;5033085;28;19964;-80
2022/01/17 04:23:03;;;;;;;;;;;1.60;99.90;;;;;;5038100;28;19917;-80
2022/01/17 04:25:30;;;;;;;;;;;1.60;99.90;;;;;;5034213;28;20411;-80
2022/01/17 04:27:57;;;;;;;;;;;1.60;99.90;;;;;;5065880;28;20434;-80
2022/01/17 04:30:23;;;;;;;;;;;1.60;99.90;;;;;;5030185;28;19939;-80
2022/01/17 04:32:49;;;;;;;;;;;1.60;99.90;;;;;;5035682;28;19952;-80
2022/01/17 04:35:20;;;;;;;;;;;1.60;99.90;;;;;;5033790;28;19979;-79
2022/01/17 04:37:50;;;;;;;;;;;1.60;99.90;;;;;;5031440;28;19944;-80
2022/01/17 04:40:16;;;;;;;;;;;1.60;99.90;;;;;;5039542;28;20418;-80
2022/01/17 04:42:45;;;;;;;;;;;1.70;99.90;;;;;;5048369;28;19917;-80
2022/01/17 04:45:13;;;;;;;;;;;1.70;99.90;;;;;;5049597;28;19916;-79
2022/01/17 04:47:41;;;;;;;;;;;1.60;99.90;;;;;;5031602;28;19913;-80
2022/01/17 04:50:07;;;;;;;;;;;1.60;99.90;;;;;;5048675;28;19920;-80
2022/01/17 04:52:35;;;;;;;;;;;1.60;99.90;;;;;;5033135;28;19912;-80
2022/01/17 04:55:02;;;;;;;;;;;1.70;99.90;;;;;;5028270;28;19925;-80
2022/01/17 04:57:28;;;;;;;;;;;1.60;99.90;;;;;;5029752;28;19918;-80
2022/01/17 04:59:54;;;;;;;;;;;1.70;99.90;;;;;;5044392;28;19933;-79
2022/01/17 05:02:19;;;;;;;;;;;1.70;99.90;;;;;;5049182;28;19924;-80
2022/01/17 05:04:45;;;;;;;;;;;1.70;99.90;;;;;;5042797;28;20002;-80
2022/01/17 05:07:11;;;;;;;;;;;1.70;99.90;;;;;;5048812;28;19920;-79
2022/01/17 05:09:39;;;;;;;;;;;1.70;99.90;;;;;;5048800;28;19924;-80
2022/01/17 05:12:04;;;;;;;;;;;1.70;99.90;;;;;;5050403;28;19951;-80
2022/01/17 05:14:30;;;;;;;;;;;1.70;99.90;;;;;;5016013;28;20403;-79
2022/01/17 05:17:19;;;;;;;;;;;1.70;99.90;;;;;;5049784;28;19913;-80
2022/01/17 05:19:57;;;;;;;;;;;1.70;99.90;;;;;;5049750;28;19916;-80
2022/01/17 05:22:24;;;;;;;;;;;1.70;99.90;;;;;;5043267;28;19921;-80
2022/01/17 05:24:49;;;;;;;;;;;1.70;99.90;;;;;;5050915;28;19974;-80
2022/01/17 05:27:15;;;;;;;;;;;1.70;99.90;;;;;;5037057;28;20326;-80
2022/01/17 05:29:41;;;;;;;;;;;1.70;99.90;;;;;;5029691;28;20388;-80
2022/01/17 05:32:07;;;;;;;;;;;1.70;99.90;;;;;;5034324;28;19920;-80
2022/01/17 05:34:34;;;;;;;;;;;1.70;99.90;;;;;;5037762;28;19960;-80
2022/01/17 05:37:00;;;;;;;;;;;1.80;99.90;;;;;;5032091;28;19920;-79
2022/01/17 05:39:26;;;;;;;;;;;1.70;99.90;;;;;;5048408;28;19916;-80
2022/01/17 05:41:52;;;;;;;;;;;1.70;99.90;;;;;;5029961;28;20371;-79
2022/01/17 05:44:18;;;;;;;;;;;1.80;99.90;;;;;;5031556;28;19913;-79
2022/01/17 05:46:43;;;;;;;;;;;1.80;99.90;;;;;;5034433;28;19956;-80
2022/01/17 05:49:09;;;;;;;;;;;1.80;99.90;;;;;;5028012;28;19928;-79
2022/01/17 05:51:34;;;;;;;;;;;1.80;99.90;;;;;;5041930;28;20351;-79
2022/01/17 05:54:00;;;;;;;;;;;1.80;99.90;;;;;;5053990;28;19912;-80
2022/01/17 05:56:26;;;;;;;;;;;1.80;99.90;;;;;;5032490;28;20003;-79
2022/01/17 05:58:51;;;;;;;;;;;1.90;99.90;;;;;;5032163;28;19917;-79
2022/01/17 06:01:17;;;;;;;;;;;1.90;99.90;;;;;;5042375;28;20024;-80
2022/01/17 06:03:42;;;;;;;;;;;1.90;99.90;;;;;;5051426;28;19917;-80
2022/01/17 06:06:08;;;;;;;;;;;1.90;99.90;;;;;;5053341;28;19916;-80
2022/01/17 06:08:34;;;;;;;;;;;1.90;99.90;;;;;;5051743;28;19921;-80
2022/01/17 06:10:59;;;;;;;;;;;1.90;99.90;;;;;;5051937;28;19913;-80
2022/01/17 06:13:25;;;;;;;;;;;1.90;99.90;;;;;;5052428;28;19917;-80
2022/01/17 06:15:51;;;;;;;;;;;2.00;99.90;;;;;;5051429;28;19917;-79
2022/01/17 06:18:16;;;;;;;;;;;2.00;99.90;;;;;;5049362;28;19924;-80
2022/01/17 06:20:42;;;;;;;;;;;2.00;99.90;;;;;;5035020;28;19924;-80
2022/01/17 06:23:08;;;;;;;;;;;2.10;99.90;;;;;;5053348;28;19913;-80
2022/01/17 06:25:33;;;;;;;;;;;2.00;99.90;;;;;;5050097;28;20368;-80
2022/01/17 06:27:59;;;;;;;;;;;1.90;99.90;;;;;;5053309;28;19920;-80
2022/01/17 06:30:25;;;;;;;;;;;1.90;99.90;;;;;;5034690;28;19923;-79
2022/01/17 06:32:51;;;;;;;;;;;1.90;99.90;;;;;;5052287;28;19913;-79
2022/01/17 06:35:16;;;;;;;;;;;2.00;99.90;;;;;;5053207;28;19916;-80
2022/01/17 06:37:44;;;;;;;;;;;2.00;99.90;;;;;;5047001;28;20379;-80
2022/01/17 06:40:10;;;;;;;;;;;2.00;99.90;;;;;;5032787;28;19920;-80
2022/01/17 06:42:36;;;;;;;;;;;2.00;99.90;;;;;;5051737;28;19913;-80
2022/01/17 06:45:04;;;;;;;;;;;2.00;99.90;;;;;;5051724;28;19943;-80
2022/01/17 06:47:34;;;;;;;;;;;2.00;99.90;;;;;;5037531;28;19919;-80
2022/01/17 06:50:00;;;;;;;;;;;2.00;99.90;;;;;;5045110;28;20011;-79
2022/01/17 06:52:25;;;;;;;;;;;1.90;99.90;;;;;;5050112;28;19982;-80
2022/01/17 06:54:52;;;;;;;;;;;2.00;99.90;;;;;;5053335;28;19924;-80
2022/01/17 06:57:18;;;;;;;;;;;2.00;99.90;;;;;;5061677;28;19920;-81
2022/01/17 06:59:44;;;;;;;;;;;2.00;99.90;;;;;;5057158;28;19913;-80
2022/01/17 07:02:09;;;;;;;;;;;2.00;99.90;;;;;;5047542;28;19919;-80
2022/01/17 07:04:35;;;;;;;;;;;2.00;99.90;;;;;;5019285;28;20015;-80
2022/01/17 07:07:02;;;;;;;;;;;2.00;99.90;;;;;;5053945;28;19983;-80
2022/01/17 07:09:28;;;;;;;;;;;1.90;99.90;;;;;;5051886;28;19921;-80
2022/01/17 07:11:58;;;;;;;;;;;2.00;99.90;;;;;;5051567;28;19919;-79
2022/01/17 07:14:25;;;;;;;;;;;2.00;99.90;;;;;;5049108;28;20067;-80
2022/01/17 07:16:50;;;;;;;;;;;2.00;99.90;;;;;;5017418;28;19924;-80
2022/01/17 07:19:16;;;;;;;;;;;2.00;99.90;;;;;;5050586;28;20430;-80
2022/01/17 07:21:42;;;;;;;;;;;2.00;99.90;;;;;;5050942;28;19943;-79
2022/01/17 07:24:07;;;;;;;;;;;2.00;99.90;;;;;;5039745;28;19963;-79
2022/01/17 07:26:33;;;;;;;;;;;1.90;99.90;;;;;;5054369;28;19914;-79
2022/01/17 07:28:59;;;;;;;;;;;2.00;99.90;;;;;;5052450;28;19987;-80
2022/01/17 07:31:24;;;;;;;;;;;2.00;99.90;;;;;;5030919;28;19948;-79
2022/01/17 07:33:50;;;;;;;;;;;2.00;99.90;;;;;;5053814;28;19956;-79
2022/01/17 07:36:19;;;;;;;;;;;2.00;99.90;;;;;;5052930;28;20226;-80
2022/01/17 07:38:45;;;;;;;;;;;2.00;99.90;;;;;;5045735;28;19924;-80
2022/01/17 07:41:11;;;;;;;;;;;2.00;99.90;;;;;;5044530;28;19924;-80
2022/01/17 07:43:38;;;;;;;;;;;2.00;99.90;;;;;;5050825;28;19917;-80
2022/01/17 07:46:06;;;;;;;;;;;2.00;99.90;;;;;;5050268;28;19913;-80
2022/01/17 07:51:18;;;;;;;;;;;2.10;99.90;;;;;;5049458;28;19920;-80
2022/01/17 07:53:44;;;;;;;;;;;2.00;99.90;;;;;;5050599;28;20038;-80
2022/01/17 07:56:10;;;;;;;;;;;2.10;99.90;;;;;;5060392;28;20031;-80
2022/01/17 07:58:35;;;;;;;;;;;2.10;99.90;;;;;;5035975;28;19935;-80
2022/01/17 08:01:01;;;;;;;;;;;2.10;99.90;;;;;;5050193;28;19924;-80
2022/01/17 08:03:27;;;;;;;;;;;2.00;99.90;;;;;;5050761;28;19958;-80
2022/01/17 08:05:52;;;;;;;;;;;2.00;99.90;;;;;;5056333;28;19913;-80
2022/01/17 08:08:18;;;;;;;;;;;2.10;99.90;;;;;;5029360;28;20396;-80
2022/01/17 08:10:43;;;;;;;;;;;2.10;99.90;;;;;;5043769;28;20011;-80
2022/01/17 08:13:10;;;;;;;;;;;2.10;99.90;;;;;;5036210;28;19923;-80
2022/01/17 08:15:37;;;;;;;;;;;2.00;99.90;;;;;;5048174;28;19970;-80
2022/01/17 08:18:03;;;;;;;;;;;2.10;99.90;;;;;;5047246;28;20591;-80
2022/01/17 08:20:30;;;;;;;;;;;2.00;99.90;;;;;;5046985;28;19913;-81
2022/01/17 08:22:59;;;;;;;;;;;2.00;99.90;;;;;;5042933;28;19913;-82
2022/01/17 08:25:25;;;;;;;;;;;2.10;99.90;;;;;;5030412;28;19913;-80
2022/01/17 08:27:51;;;;;;;;;;;2.10;99.90;;;;;;5013497;28;19919;-82
2022/01/17 08:30:16;;;;;;;;;;;2.10;99.90;;;;;;5025134;28;19920;-82
2022/01/17 08:32:42;;;;;;;;;;;2.10;99.90;;;;;;5027952;28;19916;-84
2022/01/17 08:35:08;;;;;;;;;;;2.10;99.90;;;;;;5029439;28;19913;-81
2022/01/17 08:37:33;;;;;;;;;;;2.20;99.90;;;;;;5033334;28;20466;-80
2022/01/17 08:40:00;;;;;;;;;;;2.20;99.90;;;;;;5020466;28;19917;-81
2022/01/17 08:42:26;;;;;;;;;;;2.20;99.90;;;;;;5046620;28;19925;-81
2022/01/17 08:44:53;;;;;;;;;;;2.30;99.90;;;;;;5037052;28;20631;-82
2022/01/17 08:47:19;;;;;;;;;;;2.30;99.90;;;;;;5040731;28;20407;-80
2022/01/17 08:49:46;;;;;;;;;;;2.30;99.90;;;;;;5012987;28;19927;-80
2022/01/17 08:52:15;;;;;;;;;;;2.30;99.90;;;;;;5034015;28;20598;-81
2022/01/17 08:54:41;;;;;;;;;;;2.30;99.90;;;;;;5043825;28;19913;-81
2022/01/17 08:57:06;;;;;;;;;;;2.40;99.90;;;;;;5029564;28;20058;-80
2022/01/17 08:59:32;;;;;;;;;;;2.40;99.90;;;;;;5027923;28;20279;-79
2022/01/17 09:01:58;;;;;;;;;;;2.40;99.90;;;;;;5026712;28;19917;-81
2022/01/17 09:04:24;;;;;;;;;;;2.50;99.90;;;;;;5046171;28;20004;-81
2022/01/17 09:06:49;;;;;;;;;;;2.50;99.90;;;;;;5043446;28;19912;-81
2022/01/17 09:09:16;;;;;;;;;;;2.50;99.90;;;;;;5026547;28;19943;-81
2022/01/17 09:11:42;;;;;;;;;;;2.50;99.90;;;;;;5023967;28;19920;-81
2022/01/17 09:14:08;;;;;;;;;;;2.50;99.90;;;;;;5046328;28;19920;-81
2022/01/17 09:16:34;;;;;;;;;;;2.50;99.90;;;;;;5048099;28;19992;-81
2022/01/17 09:19:01;;;;;;;;;;;2.50;99.90;;;;;;5030562;28;20036;-81
2022/01/17 09:21:26;;;;;;;;;;;2.50;99.90;;;;;;5036917;28;20025;-81
2022/01/17 09:23:57;;;;;;;;;;;2.50;99.90;;;;;;5014416;28;19968;-81
2022/01/17 09:26:25;;;;;;;;;;;2.50;99.90;;;;;;5044877;28;19951;-81
2022/01/17 09:28:51;;;;;;;;;;;2.50;99.90;;;;;;5052658;28;19921;-80
2022/01/17 09:31:16;;;;;;;;;;;2.50;99.90;;;;;;5038476;28;19913;-81
2022/01/17 09:33:42;;;;;;;;;;;2.50;99.90;;;;;;5052722;28;19921;-80
2022/01/17 09:36:08;;;;;;;;;;;2.50;99.90;;;;;;5035160;28;19939;-81
2022/01/17 09:38:33;;;;;;;;;;;2.50;99.90;;;;;;5036027;28;19917;-80
2022/01/17 09:41:00;;;;;;;;;;;2.60;99.90;;;;;;5033978;28;19917;-79
2022/01/17 09:43:25;;;;;;;;;;;2.60;99.90;;;;;;5052068;28;20340;-81
2022/01/17 09:45:51;;;;;;;;;;;2.60;99.90;;;;;;5051905;28;20019;-81
2022/01/17 09:48:20;;;;;;;;;;;2.60;99.90;;;;;;5044401;28;19932;-81
2022/01/17 09:50:58;;;;;;;;;;;2.60;99.90;;;;;;5033426;28;19956;-80
2022/01/17 09:53:24;;;;;;;;;;;2.60;99.90;;;;;;5047151;28;19917;-80
2022/01/17 09:55:50;;;;;;;;;;;2.60;99.90;;;;;;5021487;28;19913;-80
2022/01/17 09:58:16;;;;;;;;;;;2.60;99.90;;;;;;5015912;28;19996;-80
2022/01/17 10:00:43;;;;;;;;;;;2.60;99.90;;;;;;5035222;28;19974;-81
2022/01/17 10:03:10;;;;;;;;;;;2.70;99.90;;;;;;5001201;28;19960;-80
2022/01/17 10:05:36;;;;;;;;;;;2.70;99.90;;;;;;5033087;28;19976;-81
2022/01/17 10:08:07;;;;;;;;;;;2.70;99.90;;;;;;5028087;28;19967;-81
2022/01/17 10:10:59;;;;;;;;;;;2.70;99.90;;;;;;5043718;28;19955;-80
2022/01/17 10:13:25;;;;;;;;;;;2.80;99.90;;;;;;5052486;28;20363;-81
2022/01/17 10:15:57;;;;;;;;;;;2.70;99.90;;;;;;5052005;28;19917;-81
2022/01/17 10:18:33;;;;;;;;;;;2.70;99.90;;;;;;5051593;28;19920;-81
2022/01/17 10:21:09;;;;;;;;;;;2.70;99.90;;;;;;5028619;28;19921;-80
2022/01/17 10:23:47;;;;;;;;;;;2.70;99.90;;;;;;5056567;28;20449;-80
2022/01/17 10:26:55;;;;;;;;;;;2.70;99.90;;;;;;5057987;28;20007;-80
2022/01/17 10:36:45;;;;;;;;;;;2.80;99.90;;;;;;5051813;28;19924;-80
2022/01/17 10:39:10;;;;;;;;;;;2.80;99.90;;;;;;5035622;28;19913;-81
2022/01/17 10:41:36;;;;;;;;;;;2.80;99.90;;;;;;5017310;28;19917;-80
2022/01/17 10:44:01;;;;;;;;;;;2.80;99.90;;;;;;5034014;28;20372;-81
2022/01/17 10:46:27;;;;;;;;;;;2.90;99.90;;;;;;5033311;28;19913;-81
2022/01/17 10:48:54;;;;;;;;;;;2.80;99.90;;;;;;5038086;28;19971;-81
2022/01/17 10:51:26;;;;;;;;;;;2.80;99.90;;;;;;5033998;28;20307;-81
2022/01/17 10:53:52;;;;;;;;;;;2.80;99.90;;;;;;5037989;28;20294;-81
2022/01/17 10:56:22;;;;;;;;;;;2.80;99.90;;;;;;5056066;28;20395;-81
2022/01/17 10:58:59;;;;;;;;;;;2.80;99.90;;;;;;5058300;28;19912;-80
2022/01/17 11:01:25;;;;;;;;;;;2.90;99.90;;;;;;5053124;28;20295;-80
2022/01/17 11:03:57;;;;;;;;;;;2.90;99.90;;;;;;5035475;28;19917;-80
2022/01/17 11:06:23;;;;;;;;;;;3.00;99.90;;;;;;5049779;28;20054;-81
2022/01/17 11:08:50;;;;;;;;;;;3.10;99.90;;;;;;5050160;28;20015;-80
2022/01/17 11:11:21;;;;;;;;;;;3.10;99.90;;;;;;5031096;28;19916;-80
2022/01/17 11:13:49;;;;;;;;;;;3.20;99.90;;;;;;5043295;28;19963;-80
2022/01/17 11:16:14;;;;;;;;;;;3.30;99.90;;;;;;5016341;28;19970;-81
2022/01/17 11:18:44;;;;;;;;;;;3.30;99.90;;;;;;5050812;28;20427;-81
2022/01/17 11:21:11;;;;;;;;;;;3.40;99.90;;;;;;5051629;28;20015;-81
2022/01/17 11:23:37;;;;;;;;;;;3.40;99.90;;;;;;5034803;28;19955;-81
2022/01/17 11:26:03;;;;;;;;;;;3.40;99.90;;;;;;5044880;28;19917;-80
2022/01/17 11:28:30;;;;;;;;;;;3.50;99.90;;;;;;5025780;28;19920;-81
2022/01/17 11:30:57;;;;;;;;;;;3.50;99.90;;;;;;5045392;28;19917;-80
2022/01/17 11:33:23;;;;;;;;;;;3.40;99.90;;;;;;5055487;28;19964;-80
2022/01/17 11:35:52;;;;;;;;;;;3.50;99.90;;;;;;5060209;28;19919;-80
2022/01/17 11:38:21;;;;;;;;;;;3.50;99.90;;;;;;5050026;28;19966;-80
2022/01/17 11:40:47;;;;;;;;;;;3.50;99.90;;;;;;5053955;28;20286;-82
2022/01/17 11:43:18;;;;;;;;;;;3.50;99.90;;;;;;5049321;28;20020;-80
2022/01/17 11:45:44;;;;;;;;;;;3.60;99.90;;;;;;5032779;28;20415;-80
2022/01/17 11:48:17;;;;;;;;;;;3.60;99.90;;;;;;5054078;28;19913;-81
2022/01/17 11:50:45;;;;;;;;;;;3.60;99.90;;;;;;5063024;28;20543;-79
2022/01/17 11:53:10;;;;;;;;;;;3.60;99.90;;;;;;5045348;28;19917;-80
2022/01/17 11:55:39;;;;;;;;;;;3.60;99.90;;;;;;5030467;28;19913;-79
2022/01/17 11:58:31;;;;;;;;;;;3.60;99.90;;;;;;5050049;28;19924;-80
2022/01/17 12:00:57;;;;;;;;;;;3.60;99.90;;;;;;5049120;28;19917;-80
2022/01/17 12:03:24;;;;;;;;;;;3.60;99.90;;;;;;5055982;28;19919;-80
2022/01/17 12:05:49;;;;;;;;;;;3.50;99.90;;;;;;5036993;28;19944;-80
2022/01/17 12:08:22;;;;;;;;;;;3.50;99.90;;;;;;5029974;28;19972;-80
2022/01/17 12:10:51;;;;;;;;;;;3.40;99.90;;;;;;5050995;28;19919;-81
2022/01/17 12:13:22;;;;;;;;;;;3.40;99.90;;;;;;5048218;28;20379;-80
2022/01/17 12:16:06;;;;;;;;;;;3.40;99.90;;;;;;5053519;28;19912;-80
2022/01/17 12:18:33;;;;;;;;;;;3.30;99.90;;;;;;5052181;28;19925;-80
2022/01/17 12:21:17;;;;;;;;;;;3.30;99.90;;;;;;5054000;28;19917;-81
2022/01/17 12:23:43;;;;;;;;;;;3.30;99.90;;;;;;5053554;28;19920;-81
2022/01/17 12:26:28;;;;;;;;;;;3.20;99.90;;;;;;5043614;28;19965;-81
2022/01/17 12:28:54;;;;;;;;;;;3.20;99.90;;;;;;5049311;28;19916;-80
2022/01/17 12:31:36;;;;;;;;;;;3.20;99.90;;;;;;5048106;28;19996;-81
2022/01/17 12:34:23;;;;;;;;;;;3.20;99.90;;;;;;5047740;28;20587;-81
2022/01/17 12:36:50;;;;;;;;;;;3.20;99.90;;;;;;5049782;28;19921;-81
2022/01/17 12:39:20;;;;;;;;;;;3.20;99.90;;;;;;5027156;28;20379;-81
2022/01/17 12:41:48;;;;;;;;;;;3.20;99.90;;;;;;5033483;28;19913;-81
2022/01/17 12:44:15;;;;;;;;;;;3.30;99.90;;;;;;5046093;28;19917;-80
2022/01/17 12:46:42;;;;;;;;;;;3.30;99.90;;;;;;5042552;28;19923;-79
2022/01/17 12:49:08;;;;;;;;;;;3.30;99.90;;;;;;5049986;28;19924;-80
2022/01/17 12:51:34;;;;;;;;;;;3.20;99.90;;;;;;5025487;28;20339;-79
2022/01/17 12:53:59;;;;;;;;;;;3.20;99.90;;;;;;5035474;28;19916;-80
2022/01/17 12:56:25;;;;;;;;;;;3.20;99.90;;;;;;5036909;28;19913;-79
2022/01/17 12:58:51;;;;;;;;;;;3.20;99.90;;;;;;5049008;28;19917;-79
2022/01/17 13:01:17;;;;;;;;;;;3.20;99.90;;;;;;5048097;28;19913;-80
2022/01/17 13:03:49;;;;;;;;;;;3.20;99.90;;;;;;5056844;28;19931;-80
2022/01/17 13:06:16;;;;;;;;;;;3.10;99.90;;;;;;5063808;28;19924;-80
2022/01/17 13:08:43;;;;;;;;;;;3.10;99.90;;;;;;5033291;28;19972;-80
2022/01/17 13:11:18;;;;;;;;;;;3.00;99.90;;;;;;5032501;28;19920;-79
2022/01/17 13:13:45;;;;;;;;;;;3.00;99.90;;;;;;5047388;28;19987;-81
2022/01/17 13:16:11;;;;;;;;;;;3.00;99.90;;;;;;5034879;28;20408;-81
2022/01/17 13:18:36;;;;;;;;;;;3.00;99.90;;;;;;5016748;28;19921;-79
2022/01/17 13:21:02;;;;;;;;;;;3.00;99.90;;;;;;5050396;28;19963;-78
2022/01/17 13:24:12;;;;;;;;;;;3.00;99.90;;;;;;5049279;28;20379;-78
2022/01/17 13:26:40;;;;;;;;;;;3.00;99.90;;;;;;5030606;28;19913;-77
2022/01/17 13:29:07;;;;;;;;;;;3.00;99.90;;;;;;5051919;28;19929;-78
2022/01/17 13:31:32;;;;;;;;;;;3.00;99.90;;;;;;5014580;28;19959;-78
2022/01/17 13:34:10;;;;;;;;;;;3.00;99.90;;;;;;5057011;28;20295;-77
2022/01/17 13:36:37;;;;;;;;;;;3.00;99.90;;;;;;5048361;28;19912;-77
2022/01/17 13:39:05;;;;;;;;;;;3.00;99.90;;;;;;5037866;28;20300;-77
2022/01/17 13:41:31;;;;;;;;;;;3.00;99.90;;;;;;5062403;28;19917;-78
2022/01/17 13:43:57;;;;;;;;;;;3.00;99.90;;;;;;5032405;28;19921;-78
2022/01/17 13:46:23;;;;;;;;;;;3.00;99.90;;;;;;5044472;28;19956;-77
2022/01/17 13:48:48;;;;;;;;;;;2.90;99.90;;;;;;5048285;28;20448;-79
2022/01/17 13:51:14;;;;;;;;;;;2.90;99.90;;;;;;5032315;28;19917;-77
2022/01/17 13:53:40;;;;;;;;;;;2.90;99.90;;;;;;5052681;28;19913;-77
2022/01/17 13:56:06;;;;;;;;;;;2.90;99.90;;;;;;5031133;28;19917;-78
2022/01/17 13:58:34;;;;;;;;;;;2.90;99.90;;;;;;5033389;28;19920;-79
2022/01/17 14:01:00;;;;;;;;;;;2.90;99.90;;;;;;5021752;28;19959;-78
2022/01/17 14:03:28;;;;;;;;;;;2.90;99.90;;;;;;5042927;28;19914;-79
2022/01/17 14:05:54;;;;;;;;;;;2.90;99.90;;;;;;5033189;28;19917;-78
2022/01/17 14:08:30;;;;;;;;;;;2.90;99.90;;;;;;5019657;28;20047;-79
2022/01/17 14:11:01;;;;;;;;;;;2.90;99.90;;;;;;5054521;28;19926;-80
2022/01/17 14:13:36;;;;;;;;;;;2.90;99.90;;;;;;5036116;28;19920;-80
2022/01/17 14:16:12;;;;;;;;;;;2.90;99.90;;;;;;5050360;28;20047;-79
2022/01/17 14:18:44;;;;;;;;;;;2.90;99.90;;;;;;5033451;28;19917;-78
2022/01/17 14:21:35;;;;;;;;;;;2.90;99.90;;;;;;5029186;28;19917;-79
2022/01/17 14:24:21;;;;;;;;;;;2.90;99.90;;;;;;5035148;28;19924;-78
2022/01/17 14:26:51;;;;;;;;;;;2.90;99.90;;;;;;5049476;28;19920;-82
2022/01/17 14:29:18;;;;;;;;;;;2.80;99.90;;;;;;5027404;28;19921;-79
2022/01/17 14:31:45;;;;;;;;;;;2.90;99.90;;;;;;5052024;28;19909;-78
2022/01/17 14:34:43;;;;;;;;;;;2.80;99.90;;;;;;5032249;28;20505;-81
2022/01/17 14:37:15;;;;;;;;;;;2.80;99.90;;;;;;5042886;28;20062;-80
2022/01/17 14:39:46;;;;;;;;;;;2.80;99.90;;;;;;5049798;28;19920;-79
2022/01/17 14:42:15;;;;;;;;;;;2.80;99.90;;;;;;5042261;28;19996;-79
2022/01/17 14:44:46;;;;;;;;;;;2.80;99.90;;;;;;5049952;28;19979;-80
2022/01/17 14:47:13;;;;;;;;;;;2.80;99.90;;;;;;5036775;28;19917;-81
2022/01/17 14:49:41;;;;;;;;;;;2.80;99.90;;;;;;5031962;28;19925;-77
2022/01/17 14:52:12;;;;;;;;;;;2.90;99.90;;;;;;5050639;28;19917;-78
2022/01/17 14:54:46;;;;;;;;;;;2.90;99.90;;;;;;5051716;28;19920;-76
2022/01/17 15:00:06;;;;;;;;;;;2.90;99.90;;;;;;5047682;28;19921;-78